Аим

Карта отелей и гостиниц, располагающихся рядом с аэропортом Аим :



Аим Хабаровский край 58° 47' 1.32" N, 134° 15' 43.8012" E

Аим Хабаровский край 58° 47' 1.32" N, 134° 15' 43.8012" E
Код аэродрома ИКАО: 
ZC8D
Код аэродрома RU: 
ЗЦ8Д
Координаты: 
N58.78370° E134.26217°
Превышение над уровнем моря : 
241
Основная полоса: 
03/21
Курс магнитный: 
034,1/214,1
Длина основной ВПП: 
560
Ширина основной ВПП: 
40
Покрытие основной ВПП: 
Нетвёрдое (гравий)
Тип: 
Аэродром
Освещение ВПП: 
Нет
Класс аэродрома: 
Статус: 
Действующий
Принадлежность: 
ГА
Сайт: 
E-mail аэродрома: 
Страна: 
Россия
Регион: 
Хабаровский край
Город: 
Дополнительная информация: 

Найти трансфер

С помощью этой формы Вы можете найти трансфер из аэропорта Аим в город, аэропорт или вокзал:

Карта места

Javascript is required to view this map.

Погода в аэропортах:

Авиационная погода в Воронеже

Регион: 
Погода METAR: 
UUOO 210400Z VRB01MPS 2800 BR NSC M03/M03 Q1023 R30/090060 NOSIG RMK QFE754
Время наблюдения: 
2020-02-21T04:00:00Z
Температура C: 
-3.0
Точка росы: 
-3.0
Направление ветра: 
0
Скорость ветра: 
2
Метеорологическая видимость: 
1.74
Явления погоды: 
BR
Условия полета: 
IFR
Аэропорт подробнее: 

Авиационная погода в Чернобаевке

Регион: 
Погода METAR: 
UKOH 210400Z 01003MPS 3400 BR NSC M03/M03 Q1021 R03/CLRD65 NOSIG
Время наблюдения: 
2020-02-21T04:00:00Z
Температура C: 
-3.0
Точка росы: 
-3.0
Направление ветра: 
10
Скорость ветра: 
6
Метеорологическая видимость: 
2.11
Явления погоды: 
BR
Условия полета: 
IFR
Аэропорт подробнее: 

Авиационная погода в Калуге (Грабцево)

Регион: 
Погода METAR: 
UUBC 210400Z 00000MPS 5000 BR NSC M05/M05 Q1021 R31/120060 TEMPO 1500 BR RMK QFE749/0998
Время наблюдения: 
2020-02-21T04:00:00Z
Температура C: 
-5.0
Точка росы: 
-5.0
Направление ветра: 
0
Скорость ветра: 
0
Метеорологическая видимость: 
3.11
Явления погоды: 
BR
Условия полета: 
MVFR

Авиационная погода в Минеральные Воды

Регион: 
Погода METAR: 
URMM 210400Z 09004MPS 0800 0300NW R12/0500D -DZ FG VV001 02/01 Q1016 R12/090070 NOSIG RMK QBB050 MT OBSC QFE734/0979
Время наблюдения: 
2020-02-21T04:00:00Z
Температура C: 
2.0
Точка росы: 
1.0
Направление ветра: 
90
Скорость ветра: 
8
Метеорологическая видимость: 
0.5
Явления погоды: 
-DZ FG
Условия полета: 
LIFR
Аэропорт подробнее: